Lake Bridgeport, Texas
Current Conditions -  °F | °C
As of 2:15 PM on Saturday 20 Dec 2014 (Local Time) from KXBP Reporting Station
Overcast Overcast  
Wind Chill: 46°   Ceiling: 1500
Heat Index: 46°   Visibility: 10mi
Dew Point: 43°   Wind: 0mph
Humidity: 90%   Direction: NA
Pressure: 30.21"   Gusts: NA
Location:  33.1691°N, 97.8246°W
Report Text: KXBP 202015Z AUTO 00000KT 10SM SCT010 BKN015 OVC022 08/06 A3021 RMK AO2 T00760061
Loading
Personal Weather Stations






























Interactive Weather Map New forecast layout! Learn more

10-Day Weather Forecast

Advertisements
Track Severe Weather on mobile